• Join FlightAware (Why Join?)
  • Login
  • US Flag 
10:37PM EDT


 

Airport Tracker/Info


-or-


 

Live Flight TrackerFlight Track Log ✈ GJS3706 ✈ 27-Aug-2013 ✈ KORD - KBTV

Flight Track Log - Related Links

Times and Time Zones

All times are in EDT time to prevent confusion due to time zone crossing. See the GJS3706 flight status page for this flight to view local times or setup timezone preferences in your user account.

Time Position Orientation Groundspeed Altitude Reporting Facility
EDT Latitude Longitude Course Direction KTS MPH feet Rate Location/Type
10:33AM 42.0000 -87.9500 323° Northwest 157 181 2,200  Level Chicago TRACON
10:33AM 42.0333 -87.9833 323° Northwest 200 230 3,300 780 Climbing Chicago TRACON
10:36AM 42.1853 -88.0739 336° Northwest 262 302 4,900 960 Climbing Chicago Center
10:37AM 42.2769 -88.0772 358° North 273 314 6,800 2,040 Climbing Chicago Center
10:38AM 42.3561 -88.0842 356° North 283 326 9,200 2,280 Climbing Chicago Center
10:39AM 42.4369 -88.0858 359° North 291 335 11,600 1,740 Climbing Chicago Center
10:40AM 42.5139 -88.0292 28° Northeast 337 388 12,800 1,020 Climbing Chicago Center
10:41AM 42.5892 -87.9364 42° Northeast 364 419 13,800 1,200 Climbing Chicago Center
10:42AM 42.6836 -87.8147 43° Northeast 389 448 15,300 1,200 Climbing Chicago Center
10:43AM 42.7578 -87.7208 43° Northeast 404 465 16,300 960 Climbing Chicago Center
10:44AM 42.8292 -87.5989 51° Northeast 427 491 17,400 960 Climbing Chicago Center
10:45AM 42.8519 -87.3978 81° East 449 517 18,400 1,020 Climbing Chicago Center
10:46AM 42.8694 -87.2292 82° East 451 519 19,600 960 Climbing Chicago Center
10:47AM 42.8872 -87.0567 82° East 458 527 20,400 780 Climbing Chicago Center
10:48AM 42.9053 -86.8819 82° East 466 536 21,300 840 Climbing Chicago Center
10:49AM 42.9244 -86.7067 81° East 469 540 22,200 780 Climbing Chicago Center
10:50AM 42.9414 -86.5300 82° East 470 541 23,000 780 Climbing Chicago Center
10:51AM 42.9628 -86.3167 82° East 475 547 23,800 720 Climbing Chicago Center
10:53AM 42.9792 -86.1392 83° East 477 549 24,500 600 Climbing Chicago Center
10:54AM 42.9947 -85.9628 83° East 486 559 25,100 540 Climbing Chicago Center
10:55AM 43.0131 -85.7800 82° East 502 578 25,700 600 Climbing Chicago Center
10:56AM 43.0342 -85.5614 82° East 492 566 26,400 600 Climbing Chicago Center
10:57AM 43.0517 -85.3781 82° East 489 563 27,000 660 Climbing Chicago Center
10:58AM 43.0675 -85.1950 83° East 488 562 27,800 780 Climbing Chicago Center
10:59AM 43.0833 -85.0142 83° East 484 557 28,600 780 Climbing Chicago Center
11:00AM 43.0978 -84.8344 84° East 479 551 29,400 720 Climbing Chicago Center
11:01AM 43.1128 -84.6556 83° East 476 548 30,200 780 Climbing Chicago Center
11:02AM 43.1308 -84.4419 83° East 474 545 31,100 780 Climbing Chicago Center
11:03AM 43.1450 -84.2653 84° East 468 539 31,900 780 Climbing Chicago Center
11:04AM 43.1539 -84.0861 86° East 472 543 32,800 780 Climbing Chicago Center
11:05AM 43.1592 -83.9094 88° East 469 540 33,600 780 Climbing Chicago Center
11:06AM 43.1500 -83.7167 94° East 460 529 34,400 720 Climbing Toronto Center
11:07AM 43.1667 -83.5500 82° East 460 529 35,100 600 Climbing Toronto Center
11:08AM 43.1667 -83.3667 90° East 470 541 35,700 600 Climbing Toronto Center
11:09AM 43.1833 -83.1833 83° East 470 541 36,300 600 Climbing Toronto Center
11:10AM 43.1667 -83.0000 97° East 470 541 36,900 300 Climbing Toronto Center
11:11AM 43.1667 -82.8333 90° East 480 552 37,000  Climbing Toronto Center
11:12AM 43.1947 -82.6136 80° East 477 549 37,000  Level Cleveland Center
11:13AM 43.1978 -82.4228 89° East 482 555 37,000  Level Cleveland Center
11:14AM 43.1833 -82.2333 96° East 500 575 37,000  Level Toronto Center
11:15AM 43.1833 -82.0500 90° East 500 575 37,000  Level Toronto Center
11:16AM 43.2000 -81.8500 83° East 510 587 37,000  Level Toronto Center
11:17AM 43.2000 -81.6667 90° East 510 587 37,000  Level Toronto Center
11:18AM 43.2000 -81.4833 90° East 510 587 37,000  Level Toronto Center
11:19AM 43.2000 -81.3000 90° East 500 575 37,000  Level Toronto Center
11:20AM 43.2000 -81.1000 90° East 500 575 37,000  Level Toronto Center
11:21AM 43.2000 -80.9167 90° East 500 575 37,000  Level Toronto Center
11:22AM 43.2167 -80.7000 84° East 500 575 37,000  Level Toronto Center
11:23AM 43.2167 -80.5333 90° East 500 575 37,000  Level Toronto Center
11:24AM 43.2167 -80.3500 90° East 500 575 37,000  Level Toronto Center
11:25AM 43.2167 -80.1333 90° East 500 575 37,000  Level Toronto Center
11:26AM 43.2167 -79.9333 90° East 510 587 37,000  Level Toronto Center
11:27AM 43.2167 -79.7500 90° East 510 587 37,000  Level Toronto Center
11:28AM 43.2167 -79.5667 90° East 510 587 37,000  Level Toronto Center
11:29AM 43.2167 -79.3833 90° East 510 587 37,000  Level Toronto Center
11:30AM 43.2167 -79.1833 90° East 510 587 37,000  Level Toronto Center
11:31AM 43.2167 -79.0000 90° East 510 587 37,000  Level Toronto Center
11:32AM 43.2167 -78.7833 90° East 510 587 37,000  Level Toronto Center
11:33AM 43.2178 -78.6831 89° East 498 573 37,000  Level Cleveland Center
11:34AM 43.2144 -78.4839 91° East 504 580 37,000  Level Cleveland Center
11:35AM 43.2128 -78.2931 91° East 504 580 37,000  Level Cleveland Center
11:36AM 43.2086 -78.0939 92° East 510 587 37,000  Level Cleveland Center
11:37AM 43.2064 -77.8944 91° East 515 593 37,000  Level Cleveland Center
11:38AM 43.2011 -77.6783 92° East 515 593 37,000  Level Cleveland Center
11:39AM 43.1961 -77.4792 92° East 515 593 37,000  Level Cleveland Center
11:40AM 43.2222 -77.2983 79° East 489 563 37,000  Level Cleveland Center
11:41AM 43.3086 -77.0775 62° Northeast 480 552 37,000  Level Boston Center
11:42AM 43.3500 -76.9000 72° East 470 541 37,000  Level Toronto Center
11:43AM 43.4000 -76.7667 63° Northeast 470 541 37,000  Level Toronto Center
11:44AM 43.4500 -76.5833 69° East 470 541 37,000  Level Toronto Center
11:45AM 43.5000 -76.4333 65° Northeast 460 529 37,000  Level Toronto Center
11:46AM 43.5667 -76.2500 63° Northeast 470 541 37,000 -720 Level Toronto Center
11:47AM 43.6333 -76.1167 55° Northeast 470 541 35,600 -1,680 Descending Toronto Center
11:48AM 43.6833 -75.9500 67° East 460 529 33,700 -1,800 Descending Toronto Center
11:49AM 43.7333 -75.7833 67° East 470 541 32,000 -1,800 Descending Toronto Center
11:50AM 43.7500 -75.6000 83° East 490 564 30,100 -1,860 Descending Toronto Center
11:51AM 43.8000 -75.4333 67° East 490 564 28,300 -1,800 Descending Toronto Center
11:52AM 43.8667 -75.2667 61° Northeast 460 529 26,600 -1,800 Descending Toronto Center
11:53AM 43.9000 -75.1000 74° East 450 518 24,700 -1,800 Descending Toronto Center
11:54AM 43.9500 -74.9333 67° East 450 518 23,000 -1,800 Descending Toronto Center
11:55AM 44.0000 -74.7667 67° East 470 541 21,200 -1,740 Descending Toronto Center
11:56AM 44.0333 -74.6167 73° East 450 518 19,600 -1,560 Descending Toronto Center
11:57AM 44.1000 -74.4500 61° Northeast 430 495 18,100 -960 Descending Toronto Center
11:58AM 44.1167 -74.3167 80° East 430 495 17,700 -1,200 Descending Toronto Center
11:59AM 44.1667 -74.1667 65° Northeast 420 483 15,800 -1,680 Descending Toronto Center
12:00PM 44.2381 -74.0078 58° Northeast 403 464 14,000 -1,620 Descending Boston Center
12:01PM 44.2775 -73.8667 69° East 393 452 12,200 -1,680 Descending Boston Center
12:02PM 44.3353 -73.7492 55° Northeast 376 433 10,700 -1,320 Descending Boston Center
12:03PM 44.3861 -73.6689 48° Northeast 327 376 9,600 -1,440 Descending Boston Center
12:04PM 44.4389 -73.5856 48° Northeast 294 338 7,900 -1,740 Descending Boston Center
12:05PM 44.4981 -73.4994 46° Northeast 282 325 6,200 -1,740 Descending Boston Center
12:06PM 44.5611 -73.4453 31° Northeast 270 311 4,500 -1,140 Descending Boston Center
12:07PM 44.6197 -73.4053 26° Northeast 252 290 4,000 -960 Descending Boston Center
12:08PM 44.6619 -73.3622 36° Northeast 223 257 2,600 -900 Descending Boston Center
12:09PM 44.6247 -73.3181 140° Southeast 129 148 2,200 -240 Descending Boston Center
12:10PM 44.5622 -73.2936 164° South 157 181 2,200 -300 Level Boston Center
12:11PM 44.5272 -73.2408 133° Southeast 184 212 1,700 -660 Descending Boston Center
12:12PM 44.5006 -73.1997 132° Southeast 162 186 900 -720 Descending Boston Center
12:13PM 44.4736 -73.1586 133° Southeast 145 167 300 -360 Descending Boston Center
12:14PM 44.4694 -73.1528 135° Southeast 88 101 300  Level Boston Center
12:15PM 44.4572 -73.1411 146° Southeast 67 77 300  Level Boston Center